• Join FlightAware (Why Join?)
  • Login
  • US Flag 
Rudolph Flight #1: Arrived! 
10:51AM EST


 

Airport Tracker/Info


-or-


 

Live Flight TrackerFlight Track Log ✈ EJA566 ✈ 07-Oct-2013 ✈ KBFM - KBHM

Flight Track Log - Related Links

Times and Time Zones

All times are in EDT time to prevent confusion due to time zone crossing. See the EJA566 flight status page for this flight to view local times or setup timezone preferences in your user account.

Time Position Orientation Groundspeed Altitude Reporting Facility
EDT Latitude Longitude Course Direction KTS MPH feet Rate Location/Type
03:26PM 30.6544 -88.1028 314° West 182 209 2,200  Level Houston Center
03:27PM 30.6983 -88.1553 314° West 222 255 5,500 3,300 Climbing Houston Center
03:28PM 30.7172 -88.2400 285° West 273 314 9,100 2,760 Climbing Houston Center
03:29PM 30.7539 -88.3483 292° West 314 361 11,300 2,040 Climbing Houston Center
03:30PM 30.8444 -88.3681 349° North 331 381 13,400 1,740 Climbing Houston Center
03:31PM 30.9342 -88.3444 13° North 341 392 15,000 720 Climbing Houston Center
03:32PM 31.0253 -88.2922 26° Northeast 355 409 15,000  Level Houston Center
03:33PM 31.1211 -88.2361 27° Northeast 359 413 15,000  Level Houston Center
03:34PM 31.2103 -88.1831 27° Northeast 359 413 15,000  Level Houston Center
03:35PM 31.3008 -88.1297 27° Northeast 363 418 15,000  Level Houston Center
03:36PM 31.3906 -88.0761 27° Northeast 362 417 15,000  Level Houston Center
03:37PM 31.4800 -88.0222 27° Northeast 361 415 15,000  Level Houston Center
03:38PM 31.5878 -87.9586 27° Northeast 362 417 15,000  Level Houston Center
03:39PM 31.6267 -87.9411 21° North 349 402 15,000  Level Atlanta Center
03:40PM 31.7158 -87.8886 27° Northeast 354 407 15,000  Level Atlanta Center
03:41PM 31.8072 -87.8339 27° Northeast 354 407 15,000  Level Atlanta Center
03:42PM 31.8986 -87.7792 27° Northeast 359 413 15,000  Level Atlanta Center
03:43PM 31.9900 -87.7242 27° Northeast 359 413 15,000  Level Atlanta Center
03:44PM 32.0814 -87.6692 27° Northeast 359 413 15,000  Level Atlanta Center
03:45PM 32.1708 -87.6114 29° Northeast 359 413 15,000 -60 Level Atlanta Center
03:46PM 32.2619 -87.5586 26° Northeast 359 413 14,900 -60 Descending Atlanta Center
03:47PM 32.3533 -87.5056 26° Northeast 359 413 14,900  Level Atlanta Center
03:48PM 32.4486 -87.4528 25° Northeast 364 419 14,900  Level Atlanta Center
03:49PM 32.5361 -87.3897 31° Northeast 364 419 14,900  Level Atlanta Center
03:50PM 32.6253 -87.3339 28° Northeast 369 425 14,900  Level Atlanta Center
03:51PM 32.7481 -87.2642 26° Northeast 369 425 14,900 -240 Level Atlanta Center
03:51PM 32.7631 -87.2550 27° Northeast 368 423 14,600 -1,260 Descending Atlanta Center
03:52PM 32.8056 -87.2219 33° Northeast 364 419 13,900 -1,500 Descending Atlanta Center
03:52PM 32.8478 -87.2011 23° Northeast 354 407 13,100 -1,620 Descending Atlanta Center
03:53PM 32.8944 -87.1683 31° Northeast 358 412 12,300 -1,740 Descending Atlanta Center
03:54PM 32.9475 -87.1356 27° Northeast 350 403 11,200 -1,200 Descending Atlanta Center
03:54PM 32.9794 -87.1167 26° Northeast 353 406 11,100 -240 Descending Atlanta Center
03:55PM 33.0344 -87.0889 23° Northeast 342 394 11,000 -900 Descending Atlanta Center
03:55PM 33.0744 -87.0681 24° Northeast 342 394 10,200 -1,920 Descending Atlanta Center
03:56PM 33.1125 -87.0519 20° North 289 333 9,100 -1,800 Descending Atlanta Center
03:56PM 33.1400 -87.0331 30° Northeast 311 358 8,400 -2,040 Descending Atlanta Center
03:57PM 33.1781 -87.0172 19° North 240 276 7,100 -2,040 Descending Atlanta Center
03:57PM 33.2033 -87.0056 21° North 269 310 6,400 -1,140 Descending Atlanta Center
03:58PM 33.2414 -86.9869 22° Northeast 239 275 6,000 -420 Descending Atlanta Center
03:58PM 33.2625 -86.9728 29° Northeast 243 280 6,000 -240 Level Atlanta Center
03:59PM 33.3047 -86.9544 20° North 242 278 5,800 -1,020 Descending Atlanta Center
03:59PM 33.3303 -86.9378 29° Northeast 233 268 5,000 -2,040 Descending Atlanta Center
04:00PM 33.3619 -86.9239 20° North 235 270 3,800 -1,920 Descending Atlanta Center
04:00PM 33.3936 -86.9050 26° Northeast 233 268 3,100 -840 Descending Atlanta Center
04:01PM 33.4272 -86.8914 19° North 224 258 3,000 -120 Descending Atlanta Center
04:01PM 33.4464 -86.8794 27° Northeast 233 268 3,000 -300 Level Atlanta Center
04:02PM 33.4736 -86.8678 20° North 177 204 2,700 -660 Descending Atlanta Center
04:04PM 33.5314 -86.8100 40° Northeast 118 136 1,400 -660 Descending Atlanta Center
04:06PM 33.5500 -86.7500 23° Northeast  Level FlightAware Approximate
04:13PM 33.5639 -86.7523 23° Northeast  Level Estimated